Time;durP1;ratioP1;P1;durP2;ratioP2;P2;SDS_P1;SDS_P2;PMS_P1;PMS_P2;Temp;Humidity;BMP_temperature;BMP_pressure;BME280_temperature;BME280_humidity;BME280_pressure;Samples;Min_cycle;Max_cycle;Signal;HPM_P1;HPM_P2
2021/09/27 00:00:22;;;;;;;3.85;0.90;;;;;;;9.63;74.57;100173.17;1732976;80;21386;-52
2021/09/27 00:02:48;;;;;;;2.17;0.90;;;;;;;9.60;74.60;100177.80;1733158;80;20916;-51
2021/09/27 00:05:17;;;;;;;1.80;0.80;;;;;;;9.56;74.59;100172.99;1731750;80;21295;-52
2021/09/27 00:07:43;;;;;;;2.17;0.90;;;;;;;9.53;74.45;100170.91;1733121;80;21173;-51
2021/09/27 00:10:12;;;;;;;2.60;1.00;;;;;;;9.49;74.42;100172.36;1732330;80;21081;-51
2021/09/27 00:12:38;;;;;;;4.10;0.93;;;;;;;9.47;74.41;100177.36;1734452;80;21397;-51
2021/09/27 00:15:07;;;;;;;3.60;0.88;;;;;;;9.44;74.35;100187.75;1735575;80;20973;-52
2021/09/27 00:17:33;;;;;;;3.37;0.85;;;;;;;9.40;74.19;100192.84;1734241;80;21394;-52
2021/09/27 00:19:59;;;;;;;3.92;0.85;;;;;;;9.36;74.00;100190.30;1734738;80;21121;-51
2021/09/27 00:22:26;;;;;;;3.80;0.80;;;;;;;9.29;73.90;100193.69;1731753;80;21058;-51
2021/09/27 00:24:52;;;;;;;2.77;0.70;;;;;;;9.24;73.83;100191.65;1735995;80;21083;-51
2021/09/27 00:27:18;;;;;;;3.98;0.70;;;;;;;9.19;73.79;100188.23;1733537;80;21077;-52
2021/09/27 00:29:45;;;;;;;4.20;0.95;;;;;;;9.15;73.84;100193.31;1728805;80;21129;-52
2021/09/27 00:32:11;;;;;;;1.50;0.70;;;;;;;9.11;73.73;100197.02;1731763;80;23328;-51
2021/09/27 00:34:37;;;;;;;3.05;1.02;;;;;;;9.08;73.68;100198.03;1738333;80;21764;-51
2021/09/27 00:37:03;;;;;;;2.45;0.62;;;;;;;9.04;73.63;100193.69;1737459;80;21046;-51
2021/09/27 00:39:30;;;;;;;2.80;0.70;;;;;;;9.02;73.54;100197.34;1739497;80;21137;-52
2021/09/27 00:41:56;;;;;;;1.00;0.70;;;;;;;8.99;73.50;100199.70;1733656;80;21069;-51
2021/09/27 00:44:22;;;;;;;3.20;0.90;;;;;;;8.96;73.37;100193.54;1737729;80;21198;-51
2021/09/27 00:46:49;;;;;;;4.08;0.75;;;;;;;8.89;73.42;100196.91;1739640;80;21076;-51
2021/09/27 00:49:16;;;;;;;1.40;0.70;;;;;;;8.84;73.46;100202.03;1734700;80;21065;-50
2021/09/27 00:51:43;;;;;;;3.62;0.65;;;;;;;8.80;73.58;100208.42;1740505;80;21077;-51
2021/09/27 00:54:15;;;;;;;1.95;0.70;;;;;;;8.75;73.97;100212.61;1739108;80;21523;-50
2021/09/27 00:56:54;;;;;;;1.57;0.60;;;;;;;8.71;74.00;100207.80;1738339;80;23295;-51
2021/09/27 00:59:23;;;;;;;1.22;0.57;;;;;;;8.67;74.26;100203.48;1737762;80;21046;-51
2021/09/27 01:01:49;;;;;;;1.00;0.50;;;;;;;8.67;74.66;100204.82;1738982;80;21495;-52
2021/09/27 01:04:15;;;;;;;1.60;0.62;;;;;;;8.68;74.69;100209.23;1739804;80;21614;-52
2021/09/27 01:07:05;;;;;;;4.00;0.50;;;;;;;8.67;74.54;100210.66;1736094;80;21552;-52
2021/09/27 01:10:01;;;;;;;1.17;0.62;;;;;;;8.65;74.69;100204.45;1740094;80;22616;-52
2021/09/27 01:12:50;;;;;;;1.32;0.70;;;;;;;8.61;74.50;100210.37;1741052;80;21617;-52
2021/09/27 01:15:31;;;;;;;4.37;0.62;;;;;;;8.58;74.67;100207.80;1741185;80;21096;-52
2021/09/27 01:18:27;;;;;;;2.67;0.70;;;;;;;8.55;74.62;100214.60;1737199;80;21112;-51
2021/09/27 01:21:29;;;;;;;0.70;0.50;;;;;;;8.52;75.02;100209.33;1740685;80;21045;-51
2021/09/27 01:24:10;;;;;;;9.30;0.60;;;;;;;8.51;75.12;100212.05;1640402;80;21742;-51
2021/09/27 01:27:13;;;;;;;2.35;0.70;;;;;;;8.48;75.29;100210.83;1736001;80;21052;-51
2021/09/27 01:30:14;;;;;;;3.37;0.60;;;;;;;8.48;75.47;100209.49;1739505;80;21409;-51
2021/09/27 01:33:02;;;;;;;1.67;0.57;;;;;;;8.46;75.13;100219.38;1739974;80;21476;-51
2021/09/27 01:35:43;;;;;;;1.12;0.50;;;;;;;8.45;75.13;100217.63;1736082;80;21237;-51
2021/09/27 01:38:24;;;;;;;2.77;0.62;;;;;;;8.45;75.21;100218.50;1733115;80;21124;-52
2021/09/27 01:41:28;;;;;;;1.72;0.55;;;;;;;8.45;75.12;100224.33;1734859;80;20970;-50
2021/09/27 01:44:39;;;;;;;1.80;0.60;;;;;;;8.43;75.16;100226.17;1686472;83;20969;-51
2021/09/27 01:47:34;;;;;;;2.15;0.53;;;;;;;8.42;74.98;100234.69;1686350;83;21057;-51
2021/09/27 01:50:06;;;;;;;1.22;0.50;;;;;;;8.37;75.20;100235.77;1728312;80;20918;-51
2021/09/27 01:52:38;;;;;;;2.07;0.50;;;;;;;8.33;75.31;100245.28;1737078;80;21102;-52
2021/09/27 01:55:18;;;;;;;2.65;0.50;;;;;;;8.30;75.15;100245.33;1734557;80;21226;-51
2021/09/27 01:58:12;;;;;;;1.15;0.53;;;;;;;8.29;75.43;100248.05;1737981;80;20906;-51
2021/09/27 02:00:50;;;;;;;1.22;0.40;;;;;;;8.28;75.45;100248.97;1735176;80;21263;-51
2021/09/27 02:03:33;;;;;;;5.70;0.50;;;;;;;8.29;75.63;100251.61;1735510;80;21003;-51
2021/09/27 02:06:25;;;;;;;0.88;0.53;;;;;;;8.30;75.51;100248.01;1736590;80;21093;-52
2021/09/27 02:09:00;;;;;;;1.30;0.50;;;;;;;8.29;75.27;100244.03;1734995;80;21108;-51
2021/09/27 02:11:33;;;;;;;0.93;0.57;;;;;;;8.27;75.40;100242.73;1712528;80;21783;-52
2021/09/27 02:14:25;;;;;;;1.02;0.80;;;;;;;8.27;75.64;100250.77;1733157;80;21496;-52
2021/09/27 02:17:19;;;;;;;1.85;0.60;;;;;;;8.26;75.79;100244.11;1738053;80;21418;-51
2021/09/27 02:19:58;;;;;;;1.90;0.40;;;;;;;8.25;75.99;100250.43;1732955;80;21512;-52
2021/09/27 02:22:39;;;;;;;2.77;0.60;;;;;;;8.23;76.12;100257.64;1728828;80;21733;-51
2021/09/27 02:25:17;;;;;;;4.30;0.60;;;;;;;8.22;76.29;100259.44;1731759;80;21058;-51
2021/09/27 02:27:45;;;;;;;5.40;0.53;;;;;;;8.23;76.30;100263.00;1725954;80;21048;-51
2021/09/27 02:30:16;;;;;;;2.90;0.40;;;;;;;8.23;76.42;100260.31;1732626;80;21025;-52
2021/09/27 02:33:02;;;;;;;2.08;0.50;;;;;;;8.24;76.51;100259.40;1744887;79;21350;-51
2021/09/27 02:35:48;;;;;;;2.50;0.60;;;;;;;8.26;76.54;100265.11;1737025;80;20879;-51
2021/09/27 02:38:35;;;;;;;0.90;0.50;;;;;;;8.26;76.50;100265.11;1670080;83;21707;-51
2021/09/27 02:41:38;;;;;;;1.67;0.60;;;;;;;8.26;76.46;100261.55;1718385;80;21677;-51
2021/09/27 02:44:04;;;;;;;2.17;0.50;;;;;;;8.25;76.44;100266.03;1730060;80;21551;-51
2021/09/27 02:46:31;;;;;;;4.97;0.50;;;;;;;8.23;76.43;100269.24;1733577;80;21532;-51
2021/09/27 02:49:12;;;;;;;2.05;0.50;;;;;;;8.20;76.35;100255.03;1730475;80;21124;-51
2021/09/27 02:51:42;;;;;;;0.80;0.40;;;;;;;8.17;76.19;100265.38;1734328;80;20919;-52
2021/09/27 02:54:09;;;;;;;0.80;0.40;;;;;;;8.13;75.78;100267.76;1734236;80;21743;-51
2021/09/27 02:56:59;;;;;;;3.65;0.37;;;;;;;8.10;75.59;100273.66;1729858;80;21101;-51
2021/09/27 02:59:59;;;;;;;2.70;0.53;;;;;;;8.07;75.52;100273.31;1722226;80;21065;-51
2021/09/27 03:02:45;;;;;;;0.70;0.50;;;;;;;8.04;75.26;100275.20;1732054;80;21066;-52
2021/09/27 03:05:25;;;;;;;2.33;0.60;;;;;;;7.99;75.28;100273.52;1696945;82;21089;-51
2021/09/27 03:08:09;;;;;;;0.70;0.45;;;;;;;7.95;75.11;100279.91;1731575;80;21414;-51
2021/09/27 03:11:03;;;;;;;2.63;0.63;;;;;;;7.90;75.04;100276.49;1728901;80;21061;-51
2021/09/27 03:13:50;;;;;;;1.10;0.47;;;;;;;7.85;74.94;100274.84;1733673;80;21201;-51
2021/09/27 03:16:43;;;;;;;10.60;0.40;;;;;;;7.78;74.72;100274.16;1720464;80;21136;-51
2021/09/27 03:19:32;;;;;;;7.10;0.50;;;;;;;7.71;74.59;100275.25;1730756;80;21655;-51
2021/09/27 03:22:26;;;;;;;1.67;0.40;;;;;;;7.67;74.54;100276.25;1729251;80;21259;-51
2021/09/27 03:25:04;;;;;;;0.60;0.30;;;;;;;7.64;74.54;100279.03;1732261;80;22179;-51
2021/09/27 03:27:58;;;;;;;1.00;0.40;;;;;;;7.62;74.83;100278.65;1669175;80;22120;-52
2021/09/27 03:30:47;;;;;;;0.40;0.30;;;;;;;7.59;74.78;100279.14;1732417;80;21510;-51
2021/09/27 03:33:33;;;;;;;0.83;0.50;;;;;;;7.55;74.64;100275.27;1713135;80;21515;-52
2021/09/27 03:36:24;;;;;;;3.40;0.60;;;;;;;7.53;74.55;100282.45;1723414;81;21937;-52
2021/09/27 03:39:08;;;;;;;0.40;0.40;;;;;;;7.49;74.54;100285.67;1724390;81;21891;-51
2021/09/27 03:41:48;;;;;;;0.75;0.47;;;;;;;7.47;74.56;100285.31;1724041;81;21603;-52
2021/09/27 03:44:28;;;;;;;0.87;0.40;;;;;;;7.44;74.58;100283.59;1722811;81;21034;-52
2021/09/27 03:47:12;;;;;;;2.23;0.33;;;;;;;7.41;74.54;100288.13;1718440;81;21090;-51
2021/09/27 03:50:00;;;;;;;1.47;0.40;;;;;;;7.37;74.43;100293.17;1720809;81;21065;-51
2021/09/27 03:52:57;;;;;;;0.50;0.33;;;;;;;7.35;74.27;100295.00;1696834;81;21105;-51
2021/09/27 03:55:29;;;;;;;0.40;0.30;;;;;;;7.32;74.33;100301.31;1718833;81;22002;-52
2021/09/27 03:58:00;;;;;;;2.50;0.40;;;;;;;7.32;74.14;100304.45;1692882;81;20990;-51
2021/09/27 04:00:34;;;;;;;3.87;0.40;;;;;;;7.32;74.02;100297.75;1721409;81;21098;-52
2021/09/27 04:03:34;;;;;;;0.70;0.40;;;;;;;7.29;73.97;100304.55;1725530;81;20895;-51
2021/09/27 04:06:23;;;;;;;2.43;0.43;;;;;;;7.28;73.92;100312.16;1657304;85;20994;-52
2021/09/27 04:09:13;;;;;;;3.63;0.40;;;;;;;7.25;73.74;100306.87;1718813;81;21170;-51
2021/09/27 04:11:57;;;;;;;1.80;0.40;;;;;;;7.22;73.59;100305.17;1723139;81;21113;-52
2021/09/27 04:14:57;;;;;;;1.32;0.75;;;;;;;7.19;73.55;100309.25;1714779;81;21099;-51
2021/09/27 04:17:41;;;;;;;2.57;0.50;;;;;;;7.16;73.54;100302.63;1723881;81;22814;-51
2021/09/27 04:20:22;;;;;;;1.23;0.50;;;;;;;7.12;73.47;100311.22;1721581;81;21386;-51
2021/09/27 04:23:24;;;;;;;2.50;0.50;;;;;;;7.09;73.60;100315.75;1720507;81;21548;-51
2021/09/27 04:26:02;;;;;;;4.23;0.40;;;;;;;7.08;73.80;100312.20;1722635;81;21518;-51
2021/09/27 04:28:53;;;;;;;2.87;0.33;;;;;;;7.08;74.00;100314.87;1719385;81;21086;-51
2021/09/27 04:31:34;;;;;;;1.70;0.30;;;;;;;7.10;74.16;100311.70;1719645;81;21670;-51
2021/09/27 04:34:35;;;;;;;0.80;0.33;;;;;;;7.12;74.34;100309.00;1694101;80;21084;-51
2021/09/27 04:37:02;;;;;;;3.10;0.50;;;;;;;7.16;74.37;100306.65;1733568;80;22663;-51
2021/09/27 04:39:33;;;;;;;1.57;0.50;;;;;;;7.20;74.40;100309.68;1731253;80;21175;-51
2021/09/27 04:42:11;;;;;;;4.50;0.53;;;;;;;7.25;74.76;100316.24;1731301;80;21062;-50
2021/09/27 04:45:32;;;;;;;0.67;0.47;;;;;;;7.31;75.23;100311.63;1736915;80;20994;-51
2021/09/27 04:48:10;;;;;;;1.10;0.60;;;;;;;7.37;75.30;100311.46;1732051;80;21074;-50
2021/09/27 04:51:11;;;;;;;2.93;0.50;;;;;;;7.46;75.45;100295.15;1730727;80;21567;-51
2021/09/27 04:53:55;;;;;;;3.17;0.60;;;;;;;7.55;75.67;100296.70;1725869;80;21077;-51
2021/09/27 04:56:48;;;;;;;3.50;0.50;;;;;;;7.67;76.02;100301.70;1730533;80;21105;-51
2021/09/27 04:59:56;;;;;;;0.57;0.40;;;;;;;7.76;76.30;100299.23;1679834;80;21058;-51
2021/09/27 05:03:03;;;;;;;0.60;0.40;;;;;;;7.87;76.51;100294.45;1731022;80;21100;-50
2021/09/27 05:05:59;;;;;;;0.90;0.40;;;;;;;7.98;76.59;100296.38;1730446;80;21928;-51
2021/09/27 05:08:54;;;;;;;1.37;0.70;;;;;;;8.10;76.72;100293.77;1735942;80;20975;-51
2021/09/27 05:11:32;;;;;;;1.20;0.57;;;;;;;8.16;76.76;100285.57;1735314;80;21009;-51
2021/09/27 05:14:35;;;;;;;1.87;0.83;;;;;;;8.22;76.87;100288.94;1729687;80;21750;-50
2021/09/27 05:17:24;;;;;;;2.53;0.60;;;;;;;8.24;76.94;100287.56;1730983;80;22278;-52
2021/09/27 05:20:22;;;;;;;2.27;0.60;;;;;;;8.28;77.08;100295.45;1732846;80;21558;-50
2021/09/27 05:23:27;;;;;;;2.00;0.70;;;;;;;8.34;77.24;100293.95;1731421;80;21088;-49
2021/09/27 05:26:15;;;;;;;2.27;0.60;;;;;;;8.44;77.42;100295.89;1730768;80;21091;-51
2021/09/27 05:28:57;;;;;;;4.37;1.85;;;;;;;8.61;77.52;100306.97;1730550;80;21989;-49
2021/09/27 05:32:09;;;;;;;3.10;0.75;;;;;;;8.78;77.51;100310.46;1728376;80;21106;-50
2021/09/27 05:35:15;;;;;;;2.17;0.70;;;;;;;8.95;77.39;100304.08;1727181;80;21132;-51
2021/09/27 05:38:25;;;;;;;2.87;1.12;;;;;;;9.14;77.20;100306.16;1735622;80;20918;-50
2021/09/27 05:41:15;;;;;;;3.95;0.90;;;;;;;9.29;77.11;100306.98;1735283;80;21005;-50
2021/09/27 05:43:55;;;;;;;2.22;1.10;;;;;;;9.42;76.87;100305.18;1731072;80;21086;-52
2021/09/27 05:47:17;;;;;;;5.30;1.00;;;;;;;9.53;76.74;100302.59;1728249;80;21081;-50
2021/09/27 05:50:06;;;;;;;4.90;1.00;;;;;;;9.62;76.63;100308.48;1734829;80;20982;-50
2021/09/27 05:52:43;;;;;;;1.67;0.80;;;;;;;9.73;76.45;100300.05;1734061;80;21108;-50
2021/09/27 05:55:39;;;;;;;3.80;1.20;;;;;;;9.84;76.38;100302.77;1732491;80;21041;-52
2021/09/27 05:58:28;;;;;;;2.27;1.20;;;;;;;9.96;76.36;100310.84;1732924;80;21053;-51
2021/09/27 06:01:14;;;;;;;1.15;0.80;;;;;;;10.08;76.23;100300.09;1700692;80;21520;-50
2021/09/27 06:04:06;;;;;;;2.55;0.90;;;;;;;10.21;75.77;100301.41;1729124;80;22369;-50
2021/09/27 06:06:41;;;;;;;2.30;0.90;;;;;;;10.31;75.64;100301.94;1731987;80;21149;-51
2021/09/27 06:09:35;;;;;;;4.85;0.90;;;;;;;10.39;75.34;100295.80;1732608;80;21097;-51
2021/09/27 06:12:30;;;;;;;2.45;0.60;;;;;;;10.42;75.25;100297.03;1733791;80;21066;-51
2021/09/27 06:15:00;;;;;;;2.87;0.70;;;;;;;10.46;74.81;100290.61;1731571;80;21073;-50
2021/09/27 06:17:43;;;;;;;1.37;0.65;;;;;;;10.48;74.47;100295.44;1733316;80;21050;-50
2021/09/27 06:20:28;;;;;;;0.60;0.50;;;;;;;10.48;74.29;100296.31;1733168;80;22589;-50
2021/09/27 06:23:17;;;;;;;1.82;0.82;;;;;;;10.52;74.28;100297.97;1727582;80;21038;-51
2021/09/27 06:25:57;;;;;;;0.50;0.40;;;;;;;10.58;73.99;100303.09;1661302;82;21097;-51
2021/09/27 06:28:53;;;;;;;0.57;0.42;;;;;;;10.65;73.82;100302.84;1732696;80;21070;-51
2021/09/27 06:31:33;;;;;;;0.57;0.47;;;;;;;10.68;73.69;100300.05;1730518;80;21614;-51
2021/09/27 06:34:21;;;;;;;0.68;0.30;;;;;;;10.74;73.56;100301.13;1731738;80;21069;-50
2021/09/27 06:36:48;;;;;;;7.47;0.40;;;;;;;10.78;73.52;100290.20;1733507;80;21069;-51
2021/09/27 06:39:19;;;;;;;0.55;0.30;;;;;;;10.84;73.15;100291.28;1733651;80;21088;-50
2021/09/27 06:41:47;;;;;;;1.80;0.30;;;;;;;10.90;72.71;100292.84;1734742;80;21073;-50
2021/09/27 06:44:14;;;;;;;1.27;0.80;;;;;;;10.95;72.68;100294.42;1733472;80;21249;-50
2021/09/27 06:46:40;;;;;;;1.02;0.50;;;;;;;11.05;72.37;100295.39;1736380;80;21049;-50
2021/09/27 06:49:07;;;;;;;0.65;0.50;;;;;;;11.13;72.02;100298.17;1734153;80;21121;-50
2021/09/27 06:51:36;;;;;;;3.27;0.50;;;;;;;11.22;71.80;100299.61;1732783;80;21026;-50
2021/09/27 06:54:02;;;;;;;1.62;0.68;;;;;;;11.25;71.39;100295.41;1731416;80;21101;-51
2021/09/27 06:56:29;;;;;;;2.37;0.62;;;;;;;11.27;71.30;100297.11;1732148;80;22910;-51
2021/09/27 06:58:55;;;;;;;1.80;0.60;;;;;;;11.28;71.09;100304.27;1732258;80;21539;-50
2021/09/27 07:01:23;;;;;;;1.45;0.80;;;;;;;11.28;70.88;100297.52;1732400;80;21121;-51
2021/09/27 07:03:49;;;;;;;0.57;0.50;;;;;;;11.33;70.74;100303.58;1733241;80;21689;-50
2021/09/27 07:06:16;;;;;;;1.22;0.53;;;;;;;11.37;70.59;100305.69;1735085;80;21058;-51
2021/09/27 07:08:42;;;;;;;2.05;0.60;;;;;;;11.41;70.38;100295.16;1733273;80;21201;-51
2021/09/27 07:11:08;;;;;;;1.37;0.30;;;;;;;11.46;70.32;100302.59;1729438;80;21101;-50
2021/09/27 07:13:35;;;;;;;1.22;0.35;;;;;;;11.51;70.00;100290.25;1729454;80;21083;-51
2021/09/27 07:16:01;;;;;;;1.52;0.30;;;;;;;11.54;69.43;100292.83;1731811;80;21386;-50
2021/09/27 07:18:27;;;;;;;0.35;0.20;;;;;;;11.59;69.19;100298.88;1730099;80;21045;-50
2021/09/27 07:20:54;;;;;;;0.40;0.20;;;;;;;11.63;68.61;100297.82;1731142;80;21633;-50
2021/09/27 07:23:20;;;;;;;2.83;0.20;;;;;;;11.70;68.22;100297.95;1731630;80;21097;-51
2021/09/27 07:25:46;;;;;;;1.47;0.10;;;;;;;11.78;67.79;100289.55;1669165;83;21485;-50
2021/09/27 07:28:13;;;;;;;0.30;0.17;;;;;;;11.88;67.23;100301.22;1693806;82;21094;-50
2021/09/27 07:30:39;;;;;;;0.20;0.20;;;;;;;11.94;66.81;100299.58;1667137;83;21564;-51
2021/09/27 07:33:05;;;;;;;0.72;0.30;;;;;;;11.99;66.59;100295.34;1732398;80;21164;-51
2021/09/27 07:35:32;;;;;;;0.88;0.28;;;;;;;12.04;66.37;100306.32;1732733;80;21085;-51
2021/09/27 07:37:58;;;;;;;0.53;0.20;;;;;;;12.08;66.16;100298.47;1733924;80;21484;-51
2021/09/27 07:40:27;;;;;;;0.95;0.30;;;;;;;12.08;65.44;100299.81;1741749;80;21097;-51
2021/09/27 07:42:54;;;;;;;0.45;0.30;;;;;;;12.04;65.20;100300.92;1742924;80;21535;-50
2021/09/27 07:45:21;;;;;;;2.33;0.30;;;;;;;12.00;65.47;100300.64;1741805;80;20902;-51
2021/09/27 07:49:48;;;;;;;0.77;0.20;;;;;;;12.08;65.41;100304.34;1768358;78;23065;-52
2021/09/27 07:52:15;;;;;;;0.70;0.40;;;;;;;12.09;65.48;100306.09;1736040;80;21057;-52
2021/09/27 07:54:43;;;;;;;2.42;0.20;;;;;;;12.20;65.61;100302.91;1737933;80;20990;-51
2021/09/27 07:57:09;;;;;;;0.20;0.20;;;;;;;12.28;64.98;100309.70;1740185;80;21179;-51
2021/09/27 07:59:35;;;;;;;1.12;0.20;;;;;;;12.30;64.50;100306.47;1705754;81;21088;-51
2021/09/27 08:02:02;;;;;;;0.37;0.20;;;;;;;12.30;64.27;100306.47;1703128;81;21068;-51
2021/09/27 08:04:28;;;;;;;0.98;0.20;;;;;;;12.29;64.17;100311.94;1701399;81;22539;-51
2021/09/27 08:06:54;;;;;;;0.40;0.20;;;;;;;12.24;64.20;100308.11;1701338;81;21506;-51
2021/09/27 08:09:21;;;;;;;2.45;0.30;;;;;;;12.21;64.07;100308.72;1678336;81;21434;-51
2021/09/27 08:11:47;;;;;;;0.25;0.20;;;;;;;12.14;64.35;100313.53;1699392;81;21064;-51
2021/09/27 08:14:15;;;;;;;0.20;0.20;;;;;;;12.08;64.26;100310.61;1698009;81;21123;-51
2021/09/27 08:16:41;;;;;;;1.62;0.15;;;;;;;12.03;64.22;100312.66;1705487;81;20949;-51
2021/09/27 08:19:07;;;;;;;0.53;0.20;;;;;;;12.01;64.06;100310.97;1690722;82;21113;-51
2021/09/27 08:21:34;;;;;;;0.28;0.10;;;;;;;11.97;63.94;100314.30;1683829;83;21056;-51
2021/09/27 08:24:00;;;;;;;0.30;0.10;;;;;;;11.92;63.93;100313.60;1691004;82;21054;-51
2021/09/27 08:26:27;;;;;;;0.20;0.20;;;;;;;11.91;64.06;100311.00;1686853;83;21087;-51
2021/09/27 08:28:54;;;;;;;2.12;0.20;;;;;;;11.97;64.02;100320.16;1690876;82;21119;-51
2021/09/27 08:31:22;;;;;;;0.60;0.20;;;;;;;12.01;64.04;100309.61;1703096;82;21235;-51
2021/09/27 08:33:50;;;;;;;0.25;0.20;;;;;;;12.09;63.66;100307.44;1686709;83;21081;-51
2021/09/27 08:36:17;;;;;;;0.20;0.20;;;;;;;12.17;63.70;100315.19;1683031;83;21365;-51
2021/09/27 08:38:44;;;;;;;4.40;0.20;;;;;;;12.23;63.10;100317.16;1684499;83;21108;-51
2021/09/27 08:41:32;;;;;;;0.37;0.30;;;;;;;12.24;63.12;100320.27;1683524;82;21136;-52
2021/09/27 08:44:18;;;;;;;4.17;0.47;;;;;;;12.24;63.05;100317.56;1683994;83;23074;-52
2021/09/27 08:47:01;;;;;;;0.78;0.35;;;;;;;12.26;62.89;100318.81;1669362;83;21048;-52
2021/09/27 08:49:37;;;;;;;0.70;0.37;;;;;;;12.25;62.87;100321.14;1677772;84;21133;-51
2021/09/27 08:52:05;;;;;;;0.40;0.20;;;;;;;12.26;62.61;100323.74;1669500;83;21052;-51
2021/09/27 08:54:33;;;;;;;0.10;0.10;;;;;;;12.26;62.32;100316.11;1648321;83;21563;-52
2021/09/27 08:57:09;;;;;;;0.85;0.08;;;;;;;12.24;62.24;100314.86;1643770;83;22461;-51
2021/09/27 09:00:15;;;;;;;2.67;0.10;;;;;;;12.23;61.09;100315.80;1675056;83;21502;-51
2021/09/27 09:03:04;;;;;;;0.40;0.10;;;;;;;12.17;60.64;100310.67;1646103;86;21134;-52
2021/09/27 09:06:04;;;;;;;0.10;0.10;;;;;;;12.14;60.25;100314.87;1674679;84;22265;-52
2021/09/27 09:08:48;;;;;;;0.10;0.10;;;;;;;12.09;60.59;100316.41;1675791;84;21145;-52
2021/09/27 09:11:39;;;;;;;2.00;0.20;;;;;;;12.08;60.45;100316.01;1677721;84;22430;-52
2021/09/27 09:14:14;;;;;;;0.57;0.10;;;;;;;12.07;60.64;100317.45;1641062;84;21112;-52
2021/09/27 09:16:45;;;;;;;1.65;0.20;;;;;;;12.05;60.74;100315.29;1675499;84;21112;-51
2021/09/27 09:19:15;;;;;;;0.20;0.10;;;;;;;12.03;60.87;100317.17;1672144;83;21058;-52
2021/09/27 09:21:53;;;;;;;0.33;0.23;;;;;;;12.02;60.98;100314.07;1675803;83;21038;-52
2021/09/27 09:24:27;;;;;;;0.13;0.10;;;;;;;12.02;61.01;100308.20;1674620;83;21305;-52
2021/09/27 09:27:00;;;;;;;0.28;0.10;;;;;;;12.04;61.03;100296.00;1679565;83;21061;-52
2021/09/27 09:29:30;;;;;;;1.17;0.15;;;;;;;12.09;60.75;100306.09;1679582;83;21109;-52
2021/09/27 09:32:00;;;;;;;0.82;0.23;;;;;;;12.17;60.80;100299.88;1676356;83;21094;-51
2021/09/27 09:34:34;;;;;;;0.97;0.20;;;;;;;12.29;61.28;100295.27;1678524;83;21061;-51
2021/09/27 09:37:09;;;;;;;0.15;0.10;;;;;;;12.44;61.11;100294.54;1677152;83;21452;-52
2021/09/27 09:39:42;;;;;;;0.25;0.20;;;;;;;12.59;60.54;100295.63;1655453;83;21073;-51
2021/09/27 09:42:19;;;;;;;2.52;0.20;;;;;;;12.70;59.97;100295.13;1675890;83;21637;-52
2021/09/27 09:44:49;;;;;;;1.37;0.20;;;;;;;12.82;59.69;100291.36;1677427;83;21105;-52
2021/09/27 09:47:26;;;;;;;0.47;0.20;;;;;;;12.91;58.79;100290.03;1676318;83;21061;-52
2021/09/27 09:50:01;;;;;;;1.92;0.20;;;;;;;12.97;58.28;100298.30;1692386;83;21104;-52
2021/09/27 09:52:53;;;;;;;2.05;0.10;;;;;;;13.01;57.86;100298.57;1693765;83;21135;-52
2021/09/27 09:55:34;;;;;;;0.35;0.20;;;;;;;13.06;57.46;100304.14;1698175;82;21284;-52
2021/09/27 09:58:11;;;;;;;0.33;0.20;;;;;;;13.11;56.69;100299.84;1698549;82;21546;-52
2021/09/27 10:00:52;;;;;;;1.85;0.13;;;;;;;13.13;56.01;100296.59;1683629;83;20961;-52
2021/09/27 10:03:21;;;;;;;0.20;0.20;;;;;;;13.11;55.45;100300.72;1667158;83;21087;-52
2021/09/27 10:05:52;;;;;;;0.40;0.20;;;;;;;13.10;55.22;100299.47;1699558;82;21522;-52
2021/09/27 10:08:24;;;;;;;0.10;0.10;;;;;;;13.10;55.22;100299.47;1697587;82;21524;-52
2021/09/27 10:11:00;;;;;;;1.15;0.20;;;;;;;13.12;55.87;100306.52;1702827;82;21069;-51
2021/09/27 10:13:41;;;;;;;0.62;0.20;;;;;;;13.12;55.87;100306.52;1694835;82;21088;-51
2021/09/27 10:16:32;;;;;;;0.10;0.10;;;;;;;13.12;55.46;100302.94;1678829;82;23302;-52
2021/09/27 10:19:19;;;;;;;0.37;0.20;;;;;;;13.06;55.76;100308.19;1674412;82;21152;-52
2021/09/27 10:22:00;;;;;;;0.20;0.10;;;;;;;13.04;55.61;100307.86;1683109;82;21077;-51
2021/09/27 10:24:41;;;;;;;1.47;0.20;;;;;;;13.04;55.85;100307.86;1667708;83;20996;-51
2021/09/27 10:27:34;;;;;;;0.25;0.15;;;;;;;13.03;56.37;100304.28;1700097;82;20937;-52
2021/09/27 10:30:08;;;;;;;2.65;0.10;;;;;;;13.00;56.04;100295.47;1669176;83;20926;-51
2021/09/27 10:32:44;;;;;;;0.20;0.10;;;;;;;13.00;56.04;100295.47;1682934;83;20914;-52
2021/09/27 10:35:36;;;;;;;0.57;0.20;;;;;;;13.00;56.54;100294.99;1702427;82;20989;-52
2021/09/27 10:38:12;;;;;;;2.83;0.40;;;;;;;13.00;56.80;100302.22;1681481;83;20940;-52
2021/09/27 10:40:39;;;;;;;0.20;0.20;;;;;;;12.97;56.52;100299.66;1684512;83;20973;-52
2021/09/27 10:43:12;;;;;;;0.20;0.17;;;;;;;12.95;56.55;100306.48;1684231;83;21883;-52
2021/09/27 10:45:41;;;;;;;0.62;0.25;;;;;;;12.94;56.81;100297.09;1698776;83;21015;-52
2021/09/27 10:48:09;;;;;;;5.97;0.20;;;;;;;12.95;56.75;100306.48;1683898;83;20936;-52
2021/09/27 10:50:41;;;;;;;0.20;0.20;;;;;;;12.96;56.71;100299.25;1665972;84;20958;-51
2021/09/27 10:53:46;;;;;;;0.23;0.20;;;;;;;12.96;56.71;100299.25;1672898;83;21387;-52
2021/09/27 10:56:21;;;;;;;0.53;0.20;;;;;;;12.94;56.28;100299.80;1674805;83;23304;-50
2021/09/27 10:58:56;;;;;;;0.42;0.10;;;;;;;12.90;56.85;100305.84;1674498;83;20918;-50
2021/09/27 11:01:50;;;;;;;0.50;0.20;;;;;;;12.90;56.85;100305.84;1672542;83;21449;-50
2021/09/27 11:04:31;;;;;;;0.40;0.20;;;;;;;12.93;56.50;100296.73;1672755;83;21458;-52
2021/09/27 11:07:00;;;;;;;1.65;0.20;;;;;;;12.92;56.64;100295.84;1667466;83;21164;-52
2021/09/27 11:09:32;;;;;;;0.75;0.20;;;;;;;12.92;56.64;100295.84;1674735;83;21595;-52
2021/09/27 11:12:06;;;;;;;0.37;0.10;;;;;;;12.98;56.57;100302.77;1673323;83;21729;-51
2021/09/27 11:14:47;;;;;;;0.75;0.17;;;;;;;13.00;55.68;100303.09;1672202;83;21066;-52
2021/09/27 11:17:45;;;;;;;0.10;0.10;;;;;;;13.02;55.41;100307.92;1674656;83;21090;-52
2021/09/27 11:20:34;;;;;;;0.20;0.10;;;;;;;13.03;54.57;100303.40;1674960;83;21120;-52
2021/09/27 11:23:18;;;;;;;2.10;0.20;;;;;;;13.05;54.71;100305.56;1678571;83;21063;-52
2021/09/27 11:25:49;;;;;;;0.20;0.17;;;;;;;13.04;54.30;100303.33;1714297;81;21098;-51
2021/09/27 11:28:38;;;;;;;0.88;0.10;;;;;;;13.05;53.66;100302.38;1714046;81;21513;-52
2021/09/27 11:31:28;;;;;;;0.15;0.10;;;;;;;13.03;53.85;100300.70;1705354;82;21074;-52
2021/09/27 11:33:57;;;;;;;0.17;0.10;;;;;;;13.02;54.33;100305.70;1710524;81;20970;-53
2021/09/27 11:36:29;;;;;;;0.20;0.20;;;;;;;13.00;54.70;100313.03;1713818;82;21067;-52
2021/09/27 11:39:08;;;;;;;2.07;0.20;;;;;;;12.97;54.53;100303.71;1708635;82;21484;-52
2021/09/27 11:41:37;;;;;;;0.20;0.20;;;;;;;12.96;55.12;100306.88;1711687;81;20875;-52
2021/09/27 11:44:25;;;;;;;0.30;0.20;;;;;;;12.94;55.23;100307.43;1711748;82;21437;-52
2021/09/27 11:47:09;;;;;;;1.57;0.20;;;;;;;12.93;55.84;100308.88;1709011;82;21425;-52
2021/09/27 11:50:01;;;;;;;0.40;0.20;;;;;;;12.93;55.84;100308.88;1713283;82;21089;-52
2021/09/27 11:52:54;;;;;;;0.45;0.20;;;;;;;12.92;56.14;100310.70;1712478;81;20935;-52
2021/09/27 11:55:26;;;;;;;0.37;0.17;;;;;;;12.95;56.65;100312.36;1714598;82;20996;-51
2021/09/27 11:58:11;;;;;;;3.13;0.20;;;;;;;12.97;56.93;100311.34;1716684;82;21086;-51
2021/09/27 12:01:00;;;;;;;2.52;0.30;;;;;;;13.00;57.80;100299.05;1714658;82;21419;-52
2021/09/27 12:03:52;;;;;;;0.90;0.20;;;;;;;13.00;57.80;100299.05;1686101;82;21117;-52
2021/09/27 12:06:27;;;;;;;0.40;0.30;;;;;;;13.07;57.92;100309.06;1709856;82;20990;-51
2021/09/27 12:09:09;;;;;;;0.42;0.20;;;;;;;13.07;57.92;100309.06;1707161;82;21118;-51
2021/09/27 12:11:52;;;;;;;0.33;0.20;;;;;;;13.08;58.12;100302.72;1708926;82;21520;-51
2021/09/27 12:14:39;;;;;;;5.05;0.60;;;;;;;13.09;58.14;100307.17;1711769;81;20987;-51
2021/09/27 12:17:08;;;;;;;0.55;0.20;;;;;;;13.12;57.99;100309.23;1713526;82;21888;-50
2021/09/27 12:19:39;;;;;;;0.35;0.20;;;;;;;13.12;57.99;100309.23;1692546;82;21022;-52
2021/09/27 12:22:08;;;;;;;0.28;0.20;;;;;;;13.12;58.02;100309.23;1713297;81;20954;-51
2021/09/27 12:24:38;;;;;;;0.93;0.30;;;;;;;13.10;57.98;100301.66;1715934;82;20990;-51
2021/09/27 12:27:12;;;;;;;0.70;0.30;;;;;;;13.11;58.20;100304.77;1713524;82;21480;-51